Latest Coastal Weather Observations for Troughton Island

IDD60701

Issued at 8:21 pm CST Tuesday 17 January 2017 (issued every 10 minutes, with the page automatically refreshed every 10 minutes)

About coastal observations | Map of coastal stations | Coastal observations for NT | Marine services | Other Formats
Station Details ID: 001007 Name: TROUGHTON ISLAND Lat: -13.75 Lon: 126.15 Height: 6.0 m
Data from the previous 72 hours. | See also: Recent months at Troughton Island
Date/Time
CST
Temp
°C
Wind Pressure Rain since
9am
mm
Weather Cloud Vis
km
Sea
Height
m
Swell
Dir  Spd
kts
Gust
kts
hPa Trend Height
m
Period
s
Dir
17/08:00pm 28.6 NW 10 12 1008.1 - 0.0 - - - - - - -
17/07:30pm 28.8 NW 9 12 1007.4 - 0.0 - - - - - - -
17/07:00pm 28.9 WNW 10 13 1006.8 - 0.0 - - - - - - -
17/06:30pm 28.6 WNW 9 12 1006.3 - 0.0 - - - - - - -
17/06:00pm 29.1 WNW 13 16 1006.3 - 0.0 - - - - - - -
17/05:30pm 30.0 NW 13 15 1005.9 - 0.0 - - - - - - -
17/05:00pm 29.8 NNW 10 13 1005.8 - 0.0 - - - - - - -
17/04:30pm 30.5 NW 12 14 1006.0 - 0.0 - - - - - - -
17/04:00pm 30.4 NW 11 12 1006.2 - 0.0 - - - - - - -
17/03:30pm 30.3 WNW 10 11 1006.4 - 0.0 - - - - - - -
17/03:00pm 30.4 NW 10 12 1006.9 - 0.0 - - - - - - -
17/02:30pm 30.5 NW 10 11 1007.3 - 0.0 - - - - - - -
17/02:00pm 30.5 WNW 9 11 1007.5 - 0.0 - - - - - - -
17/01:30pm 30.0 WNW 9 11 1007.9 - 0.0 - - - - - - -
17/01:00pm 30.1 NW 11 13 1008.1 - 0.0 - - - - - - -
17/12:30pm 30.4 WNW 10 12 1008.2 - 0.0 - - - - - - -
17/12:00pm 30.5 WNW 10 13 1008.2 - 0.0 - - - - - - -
17/11:30am 30.0 WNW 10 12 1008.4 - 0.0 - - - - - - -
17/11:00am 30.1 WNW 8 10 1008.5 - 0.0 - - - - - - -
17/10:30am 29.9 WNW 9 11 1008.6 - 0.2 - - - - - - -
17/10:00am 29.7 WNW 8 11 1008.5 - 0.2 - - - - - - -
17/09:30am 29.5 W 6 8 1008.5 - 0.2 - - - - - - -
17/09:00am 29.1 W 8 9 1008.5 - 0.2 - - - - - - -
17/08:30am 28.6 WSW 9 11 1008.3 - 0.2 - - - - - - -
17/08:00am 28.1 WSW 11 13 1008.2 - 0.2 - - - - - - -
17/07:30am 28.7 W 12 14 1008.3 - 0.2 - - - - - - -
17/07:00am 28.6 W 11 13 1007.6 - 0.2 - - - - - - -
17/06:30am 28.5 W 11 13 1007.3 - 0.2 - - - - - - -
17/06:00am 28.2 WNW 13 15 1007.1 - 0.2 - - - - - - -
17/05:30am 28.1 NW 12 14 1006.7 - 0.2 - - - - - - -
17/05:00am 28.7 WNW 10 12 1006.7 - 0.0 - - - - - - -
17/04:30am 28.6 WNW 11 14 1006.5 - 0.0 - - - - - - -
17/04:00am 28.5 WNW 10 12 1006.4 - 0.0 - - - - - - -
17/03:30am 29.0 W 9 11 1006.8 - 0.0 - - - - - - -
17/03:00am 29.0 W 9 10 1006.9 - 0.0 - - - - - - -
17/02:30am 28.9 W 9 11 1006.7 - 0.0 - - - - - - -
17/02:00am 29.0 W 8 9 1006.6 - 0.0 - - - - - - -
17/01:30am 29.0 WNW 9 11 1006.9 - 0.0 - - - - - - -
17/01:00am 29.0 WNW 10 12 1007.1 - 0.0 - - - - - - -
17/12:30am 28.9 WNW 11 13 1007.5 - 0.0 - - - - - - -
17/12:00am 28.8 NW 11 13 1007.8 - 0.0 - - - - - - -
 
Date/Time
CST
Temp
°C
Wind Pressure Rain since
9am
mm
Weather Cloud Vis
km
Sea
Height
m
Swell
Dir  Spd
kts
Gust
kts
hPa Trend Height
m
Period
s
Dir
16/11:30pm 28.8 NW 11 13 1008.1 - 0.0 - - - - - - -
16/11:00pm 28.8 NW 8 11 1008.1 - 0.0 - - - - - - -
16/10:30pm 28.7 NW 8 10 1008.2 - 0.0 - - - - - - -
16/10:00pm 28.8 NW 9 11 1008.3 - 0.0 - - - - - - -
16/09:30pm 28.8 NW 11 13 1008.2 - 0.0 - - - - - - -
16/09:00pm 28.8 NW 9 11 1007.9 - 0.0 - - - - - - -
16/08:30pm 28.9 NW 10 12 1007.4 - 0.0 - - - - - - -
16/08:00pm 29.0 NW 11 12 1007.1 - 0.0 - - - - - - -
16/07:30pm 29.2 NW 10 12 1006.9 - 0.0 - - - - - - -
16/07:00pm 29.5 NW 10 11 1006.6 - 0.0 - - - - - - -
16/06:30pm 29.9 NW 9 11 1006.6 - 0.0 - - - - - - -
16/06:00pm 29.7 NW 10 11 1006.4 - 0.0 - - - - - - -
16/05:30pm 30.2 NW 11 13 1006.3 - 0.0 - - - - - - -
16/05:00pm 30.5 WNW 11 13 1006.2 - 0.0 - - - - - - -
16/04:30pm 31.2 WNW 11 13 1006.3 - 0.0 - - - - - - -
16/04:00pm 30.9 WNW 9 12 1006.4 - 0.0 - - - - - - -
16/03:30pm 30.9 WNW 9 11 1006.6 - 0.0 - - - - - - -
16/03:00pm 31.3 WNW 9 11 1007.0 - 0.0 - - - - - - -
16/02:30pm 30.6 WNW 8 9 1007.5 - 0.0 - - - - - - -
16/02:00pm 31.6 WNW 7 9 1007.8 - 0.0 - - - - - - -
16/01:30pm 31.6 W 7 8 1007.9 - 0.0 - - - - - - -
16/01:00pm 31.6 W 7 8 1007.9 - 0.0 - - - - - - -
16/12:30pm 31.1 WNW 8 9 1008.2 - 0.0 - - - - - - -
16/12:00pm 31.4 W 7 9 1008.6 - 0.0 - - - - - - -
16/11:30am 31.1 W 7 9 1009.0 - 0.0 - - - - - - -
16/11:00am 30.5 W 7 9 1009.4 - 0.0 - - - - - - -
16/10:30am 31.1 W 7 9 1009.5 - 0.0 - - - - - - -
16/10:00am 31.0 W 9 11 1009.7 - 0.0 - - - - - - -
16/09:30am 30.7 W 10 12 1009.5 - 0.0 - - - - - - -
16/09:00am 30.1 WNW 10 12 1009.5 - 0.0 - - - - - - -
16/08:30am 29.4 W 11 13 1009.3 - 0.0 - - - - - - -
16/08:00am 29.1 WNW 11 13 1008.9 - 0.0 - - - - - - -
16/07:30am 28.6 W 9 11 1008.8 - 0.0 - - - - - - -
16/07:00am 28.3 W 10 11 1008.4 - 0.0 - - - - - - -
16/06:30am 28.4 W 11 13 1008.1 - 0.0 - - - - - - -
16/06:00am 28.4 W 10 11 1007.7 - 0.0 - - - - - - -
16/05:30am 28.5 W 10 12 1007.4 - 0.0 - - - - - - -
16/05:00am 28.5 W 10 13 1007.3 - 0.0 - - - - - - -
16/04:30am 28.5 W 10 12 1007.1 - 0.0 - - - - - - -
16/04:00am 28.5 W 9 11 1007.2 - 0.0 - - - - - - -
16/03:30am 28.5 W 9 11 1007.3 - 0.0 - - - - - - -
16/03:00am 28.5 W 9 11 1007.5 - 0.0 - - - - - - -
16/02:30am 28.6 WNW 9 11 1007.6 - 0.0 - - - - - - -
16/02:00am 28.6 WNW 9 11 1007.9 - 0.0 - - - - - - -
16/01:30am 28.8 WNW 11 12 1008.1 - 0.0 - - - - - - -
16/01:00am 28.8 WNW 10 11 1008.4 - 0.0 - - - - - - -
16/12:30am 28.7 WNW 11 13 1008.5 - 0.0 - - - - - - -
16/12:00am 28.7 WNW 10 12 1008.8 - 0.0 - - - - - - -
 
Date/Time
CST
Temp
°C
Wind Pressure Rain since
9am
mm
Weather Cloud Vis
km
Sea
Height
m
Swell
Dir  Spd
kts
Gust
kts
hPa Trend Height
m
Period
s
Dir
15/11:30pm 28.7 WNW 11 13 1008.8 - 0.0 - - - - - - -
15/11:00pm 28.7 WNW 11 14 1008.8 - 0.0 - - - - - - -
15/10:30pm 28.7 WNW 11 12 1008.8 - 0.0 - - - - - - -
15/10:00pm 28.7 NW 10 12 1008.6 - 0.0 - - - - - - -
15/09:30pm 28.8 NW 10 12 1008.5 - 0.0 - - - - - - -
15/09:00pm 28.8 NW 11 14 1008.3 - 0.0 - - - - - - -
15/08:30pm 29.0 WNW 10 12 1008.2 - 0.0 - - - - - - -
15/08:00pm 29.0 NW 10 12 1007.9 - 0.0 - - - - - - -
15/07:30pm 29.1 NW 9 11 1007.8 - 0.0 - - - - - - -
15/07:00pm 29.6 NW 10 11 1007.4 - 0.0 - - - - - - -
15/06:30pm 30.2 NW 8 9 1007.0 - 0.0 - - - - - - -
15/06:00pm 30.9 WNW 9 10 1006.8 - 0.0 - - - - - - -
15/05:30pm 31.2 WNW 9 11 1007.0 - 0.0 - - - - - - -
15/05:00pm 31.1 NW 10 11 1007.0 - 0.0 - - - - - - -
15/04:30pm 31.3 NW 10 11 1007.2 - 0.0 - - - - - - -
15/04:00pm 30.9 NW 9 11 1007.4 - 0.0 - - - - - - -
15/03:30pm 31.2 NW 9 11 1007.6 - 0.0 - - - - - - -
15/03:00pm 31.6 WNW 7 9 1008.0 - 0.0 - - - - - - -
15/02:30pm 31.1 NW 7 9 1008.4 - 0.0 - - - - - - -
15/02:00pm 31.1 NW 8 11 1008.5 - 0.0 - - - - - - -
15/01:30pm 31.4 NW 7 8 1008.8 - 0.0 - - - - - - -
15/01:00pm 31.2 WNW 6 8 1009.0 - 0.0 - - - - - - -
15/12:30pm 31.2 WNW 6 7 1009.3 - 0.0 - - - - - - -
15/12:00pm 30.9 WNW 6 7 1009.5 - 0.0 - - - - - - -
15/11:30am 31.1 W 6 7 1009.7 - 0.0 - - - - - - -
15/11:00am 30.8 W 5 7 1009.8 - 0.0 - - - - - - -
15/10:30am 30.6 WNW 4 6 1009.9 - 0.0 - - - - - - -
15/10:00am 29.8 WNW 5 8 1010.1 - 0.0 - - - - - - -
15/09:30am 30.1 WNW 5 6 1009.8 - 0.0 - - - - - - -
15/09:00am 29.9 W 6 8 1009.5 - 0.0 - - - - - - -
15/08:30am 29.7 WNW 6 8 1009.4 - 0.0 - - - - - - -
15/08:00am 29.1 WNW 6 8 1009.4 - 0.0 - - - - - - -
15/07:30am 28.5 WNW 6 9 1009.5 - 0.0 - - - - - - -
15/07:00am 28.2 WNW 7 9 1009.1 - 0.0 - - - - - - -
15/06:30am 28.2 WNW 9 11 1008.8 - 0.0 - - - - - - -
15/06:00am 28.3 WNW 9 11 1008.5 - 0.0 - - - - - - -
15/05:30am 28.2 WNW 9 11 1008.3 - 0.0 - - - - - - -
15/05:00am 28.3 WNW 9 11 1008.2 - 0.0 - - - - - - -
15/04:30am 28.3 WNW 10 11 1008.1 - 0.0 - - - - - - -
15/04:00am 28.3 NW 10 11 1008.1 - 0.0 - - - - - - -
15/03:30am 28.4 NW 10 11 1008.1 - 0.0 - - - - - - -
15/03:00am 28.4 NW 10 12 1008.3 - 0.0 - - - - - - -
15/02:30am 28.5 NW 9 11 1008.4 - 0.0 - - - - - - -
15/02:00am 28.6 NW 9 11 1008.7 - 0.0 - - - - - - -
15/01:30am 28.7 WNW 10 12 1008.8 - 0.0 - - - - - - -
15/01:00am 28.8 WNW 10 11 1009.1 - 0.0 - - - - - - -
15/12:30am 28.9 W 10 12 1009.2 - 0.0 - - - - - - -
15/12:00am 28.8 WNW 9 11 1009.3 - 0.0 - - - - - - -
 
Date/Time
CST
Temp
°C
Wind Pressure Rain since
9am
mm
Weather Cloud Vis
km
Sea
Height
m
Swell
Dir  Spd
kts
Gust
kts
hPa Trend Height
m
Period
s
Dir
14/11:30pm 28.8 WNW 9 11 1009.5 - 0.0 - - - - - - -
14/11:00pm 28.7 NW 9 11 1009.4 - 0.0 - - - - - - -
14/10:30pm 28.7 NW 10 12 1009.5 - 0.0 - - - - - - -
14/10:00pm 28.8 NW 11 13 1009.2 - 0.0 - - - - - - -

Other Formats:

Comma delimited format used in spreadsheet applications
http://www.bom.gov.au/fwo/IDD60701/IDD60701.94102.axf

JavaScript Object Notation format (JSON) in row-major order
http://www.bom.gov.au/fwo/IDD60701/IDD60701.94102.json